createdAt,value
2023-04-21T08:13:54.437Z,13.9
2023-04-21T08:30:13.626Z,15.5
2023-04-21T08:38:29.147Z,13.9
2023-04-21T08:46:44.513Z,13.2
2023-04-21T08:54:59.956Z,12.5
2023-04-21T09:03:15.341Z,11.7
2023-04-21T09:11:30.736Z,11.2
2023-04-21T09:19:46.039Z,11
2023-04-21T09:28:01.270Z,11
2023-04-21T09:36:16.558Z,10.4
2023-04-21T09:44:31.792Z,9.9
2023-04-21T09:52:47.027Z,9.6
2023-04-21T10:01:02.259Z,9.4
2023-04-21T10:09:17.515Z,9.5
2023-04-21T10:17:32.843Z,10.6
2023-04-21T10:25:48.301Z,11.2
2023-04-21T10:34:03.552Z,10.3
2023-04-21T10:36:52.888Z,11.3
2023-04-21T10:38:29.783Z,14.1
2023-04-21T10:40:30.427Z,16
2023-04-21T10:41:17.043Z,16.6
2023-04-21T10:42:26.419Z,17.8
2023-04-21T10:50:35.957Z,13.7
2023-04-21T10:58:51.255Z,11.2
2023-04-21T11:07:06.561Z,10.7
2023-04-21T11:15:21.959Z,11.4
2023-04-21T11:23:37.393Z,12.1
2023-04-21T11:31:52.829Z,12.5
2023-04-21T11:40:08.256Z,12.2
2023-04-21T11:48:23.627Z,12.2
2023-04-21T11:56:39.031Z,11.9
2023-04-21T12:04:54.439Z,12.1
2023-04-21T12:13:09.869Z,11.9
2023-04-21T12:21:25.182Z,12.4
2023-04-21T12:29:40.565Z,12.4
2023-04-21T12:37:55.930Z,12.3
2023-04-21T12:46:11.275Z,12.1
2023-04-21T12:54:26.644Z,12.1
2023-04-21T13:02:41.997Z,11.8
2023-04-21T13:10:57.388Z,11.8
2023-04-21T13:19:12.652Z,11.6
2023-04-21T13:35:43.340Z,11.7
2023-04-21T13:43:58.622Z,11.8
2023-04-21T13:52:13.977Z,11.8
2023-04-21T14:00:29.316Z,11.8
2023-04-21T14:08:44.655Z,11.9
2023-04-21T14:16:59.999Z,11.8
2023-04-21T14:25:15.414Z,11.9
2023-04-21T14:33:30.652Z,11.7
2023-04-21T14:41:45.946Z,11.7
2023-04-21T14:50:01.379Z,11.5
2023-04-21T14:58:16.599Z,11.5
2023-04-21T15:06:32.004Z,11.5
2023-04-21T15:14:47.245Z,11.5
2023-04-21T15:23:02.631Z,11.8
2023-04-21T15:31:17.948Z,12
